Montezuma Creek, Utah
Current Conditions -  °F | °C
As of 8:15 PM on Thursday 27 Nov 2014 (Local Time) from KBDG Reporting Station
Clear Clear  
Wind Chill: 30°   Ceiling: Unl
Heat Index: 37°   Visibility: 10mi
Dew Point: 23°   Wind: 8mph
Humidity: 57%   Direction: 20°NNE
Pressure: 30.4"   Gusts: NA
Location:  37.26°N, 109.31°W
Report Text: KBDG 280315Z AUTO 02007KT 10SM CLR 03/M05 A3040 RMK AO1 T00251052
Loading
Personal Weather Stations






























Interactive Weather Map New forecast layout! Learn more

10-Day Weather Forecast

Advertisements
Track Severe Weather on mobile